sensor_id;sensor_type;location;lat;lon;timestamp;P1;durP1;ratioP1;P2;durP2;ratioP2
18510;SDS011;9384;48.044;11.616;2022-11-20T00:00:15;1.60;;;1.60;;
18510;SDS011;9384;48.044;11.616;2022-11-20T00:02:43;2.23;;;1.70;;
18510;SDS011;9384;48.044;11.616;2022-11-20T00:05:10;2.00;;;1.90;;
18510;SDS011;9384;48.044;11.616;2022-11-20T00:07:36;2.13;;;1.67;;
18510;SDS011;9384;48.044;11.616;2022-11-20T00:10:03;1.80;;;1.70;;
18510;SDS011;9384;48.044;11.616;2022-11-20T00:12:31;1.63;;;1.63;;
18510;SDS011;9384;48.044;11.616;2022-11-20T00:14:59;1.70;;;1.60;;
18510;SDS011;9384;48.044;11.616;2022-11-20T00:17:29;2.00;;;1.90;;
18510;SDS011;9384;48.044;11.616;2022-11-20T00:19:56;2.77;;;2.57;;
18510;SDS011;9384;48.044;11.616;2022-11-20T00:22:23;1.90;;;1.90;;
18510;SDS011;9384;48.044;11.616;2022-11-20T00:24:49;2.37;;;1.73;;
18510;SDS011;9384;48.044;11.616;2022-11-20T00:27:16;1.67;;;1.63;;
18510;SDS011;9384;48.044;11.616;2022-11-20T00:29:43;2.70;;;1.90;;
18510;SDS011;9384;48.044;11.616;2022-11-20T00:32:11;2.13;;;2.03;;
18510;SDS011;9384;48.044;11.616;2022-11-20T00:34:38;1.80;;;1.70;;
18510;SDS011;9384;48.044;11.616;2022-11-20T00:37:05;1.87;;;1.80;;
18510;SDS011;9384;48.044;11.616;2022-11-20T00:39:31;1.90;;;1.80;;
18510;SDS011;9384;48.044;11.616;2022-11-20T00:41:58;2.27;;;1.80;;
18510;SDS011;9384;48.044;11.616;2022-11-20T00:44:25;2.10;;;2.00;;
18510;SDS011;9384;48.044;11.616;2022-11-20T00:46:52;2.30;;;2.20;;
18510;SDS011;9384;48.044;11.616;2022-11-20T00:49:20;3.13;;;2.90;;
18510;SDS011;9384;48.044;11.616;2022-11-20T00:51:47;2.17;;;2.07;;
18510;SDS011;9384;48.044;11.616;2022-11-20T00:54:14;2.13;;;2.03;;
18510;SDS011;9384;48.044;11.616;2022-11-20T00:56:40;1.77;;;1.70;;
18510;SDS011;9384;48.044;11.616;2022-11-20T00:59:08;2.33;;;2.30;;
18510;SDS011;9384;48.044;11.616;2022-11-20T01:01:36;2.30;;;2.10;;
18510;SDS011;9384;48.044;11.616;2022-11-20T01:04:03;2.47;;;2.37;;
18510;SDS011;9384;48.044;11.616;2022-11-20T01:06:32;2.00;;;1.90;;
18510;SDS011;9384;48.044;11.616;2022-11-20T01:09:01;2.50;;;2.33;;
18510;SDS011;9384;48.044;11.616;2022-11-20T01:11:31;2.17;;;1.90;;
18510;SDS011;9384;48.044;11.616;2022-11-20T01:14:00;2.57;;;2.30;;
18510;SDS011;9384;48.044;11.616;2022-11-20T01:16:29;1.90;;;1.90;;
18510;SDS011;9384;48.044;11.616;2022-11-20T01:18:58;2.40;;;2.20;;
18510;SDS011;9384;48.044;11.616;2022-11-20T01:21:26;2.80;;;2.43;;
18510;SDS011;9384;48.044;11.616;2022-11-20T01:23:56;2.50;;;2.40;;
18510;SDS011;9384;48.044;11.616;2022-11-20T01:26:24;2.20;;;2.10;;
18510;SDS011;9384;48.044;11.616;2022-11-20T01:28:52;2.50;;;2.30;;
18510;SDS011;9384;48.044;11.616;2022-11-20T01:31:21;2.07;;;1.97;;
18510;SDS011;9384;48.044;11.616;2022-11-20T01:33:50;3.57;;;2.47;;
18510;SDS011;9384;48.044;11.616;2022-11-20T01:36:18;2.17;;;2.03;;
18510;SDS011;9384;48.044;11.616;2022-11-20T01:38:46;2.00;;;1.83;;
18510;SDS011;9384;48.044;11.616;2022-11-20T01:41:15;3.97;;;2.47;;
18510;SDS011;9384;48.044;11.616;2022-11-20T01:43:56;4.53;;;2.30;;
18510;SDS011;9384;48.044;11.616;2022-11-20T01:46:23;2.20;;;2.07;;
18510;SDS011;9384;48.044;11.616;2022-11-20T01:48:50;2.37;;;2.27;;
18510;SDS011;9384;48.044;11.616;2022-11-20T01:51:22;2.10;;;2.10;;
18510;SDS011;9384;48.044;11.616;2022-11-20T01:53:52;2.30;;;2.20;;
18510;SDS011;9384;48.044;11.616;2022-11-20T01:56:22;2.57;;;2.43;;
18510;SDS011;9384;48.044;11.616;2022-11-20T01:58:50;3.57;;;2.40;;
18510;SDS011;9384;48.044;11.616;2022-11-20T02:01:20;2.10;;;2.00;;
18510;SDS011;9384;48.044;11.616;2022-11-20T02:03:47;2.17;;;2.07;;
18510;SDS011;9384;48.044;11.616;2022-11-20T02:06:16;2.30;;;2.20;;
18510;SDS011;9384;48.044;11.616;2022-11-20T02:08:50;2.10;;;2.00;;
18510;SDS011;9384;48.044;11.616;2022-11-20T02:11:17;2.00;;;1.80;;
18510;SDS011;9384;48.044;11.616;2022-11-20T02:13:46;2.07;;;1.97;;
18510;SDS011;9384;48.044;11.616;2022-11-20T02:16:14;2.23;;;2.13;;
18510;SDS011;9384;48.044;11.616;2022-11-20T02:18:43;2.23;;;2.00;;
18510;SDS011;9384;48.044;11.616;2022-11-20T02:21:21;2.27;;;2.20;;
18510;SDS011;9384;48.044;11.616;2022-11-20T02:23:58;2.20;;;2.10;;
18510;SDS011;9384;48.044;11.616;2022-11-20T02:26:27;2.23;;;2.13;;
18510;SDS011;9384;48.044;11.616;2022-11-20T02:28:55;2.20;;;2.10;;
18510;SDS011;9384;48.044;11.616;2022-11-20T02:31:24;2.33;;;2.23;;
18510;SDS011;9384;48.044;11.616;2022-11-20T02:33:54;2.20;;;2.10;;
18510;SDS011;9384;48.044;11.616;2022-11-20T02:36:21;2.03;;;1.83;;
18510;SDS011;9384;48.044;11.616;2022-11-20T02:38:50;2.67;;;2.43;;
18510;SDS011;9384;48.044;11.616;2022-11-20T02:41:18;2.30;;;2.20;;
18510;SDS011;9384;48.044;11.616;2022-11-20T02:43:45;2.40;;;2.20;;
18510;SDS011;9384;48.044;11.616;2022-11-20T02:46:12;2.20;;;2.10;;
18510;SDS011;9384;48.044;11.616;2022-11-20T02:48:38;3.87;;;2.60;;
18510;SDS011;9384;48.044;11.616;2022-11-20T02:51:05;2.30;;;2.20;;
18510;SDS011;9384;48.044;11.616;2022-11-20T02:53:32;2.30;;;2.20;;
18510;SDS011;9384;48.044;11.616;2022-11-20T02:55:59;2.57;;;2.47;;
18510;SDS011;9384;48.044;11.616;2022-11-20T02:58:27;2.20;;;2.10;;
18510;SDS011;9384;48.044;11.616;2022-11-20T03:00:54;3.47;;;3.07;;
18510;SDS011;9384;48.044;11.616;2022-11-20T03:03:20;5.40;;;2.87;;
18510;SDS011;9384;48.044;11.616;2022-11-20T03:05:47;2.83;;;2.63;;
18510;SDS011;9384;48.044;11.616;2022-11-20T03:08:14;2.57;;;2.40;;
18510;SDS011;9384;48.044;11.616;2022-11-20T03:10:41;2.97;;;2.60;;
18510;SDS011;9384;48.044;11.616;2022-11-20T03:13:07;2.70;;;2.47;;
18510;SDS011;9384;48.044;11.616;2022-11-20T03:15:36;2.23;;;2.13;;
18510;SDS011;9384;48.044;11.616;2022-11-20T03:18:03;2.50;;;2.40;;
18510;SDS011;9384;48.044;11.616;2022-11-20T03:20:32;2.37;;;2.27;;
18510;SDS011;9384;48.044;11.616;2022-11-20T03:22:59;2.80;;;2.60;;
18510;SDS011;9384;48.044;11.616;2022-11-20T03:25:26;2.70;;;2.43;;
18510;SDS011;9384;48.044;11.616;2022-11-20T03:27:53;2.40;;;2.30;;
18510;SDS011;9384;48.044;11.616;2022-11-20T03:30:21;2.83;;;2.63;;
18510;SDS011;9384;48.044;11.616;2022-11-20T03:32:52;4.73;;;2.47;;
18510;SDS011;9384;48.044;11.616;2022-11-20T03:35:19;2.70;;;2.27;;
18510;SDS011;9384;48.044;11.616;2022-11-20T03:37:46;2.30;;;2.20;;
18510;SDS011;9384;48.044;11.616;2022-11-20T03:40:13;2.30;;;2.20;;
18510;SDS011;9384;48.044;11.616;2022-11-20T03:42:40;2.50;;;2.40;;
18510;SDS011;9384;48.044;11.616;2022-11-20T03:45:13;2.40;;;2.30;;
18510;SDS011;9384;48.044;11.616;2022-11-20T03:47:40;2.53;;;2.33;;
18510;SDS011;9384;48.044;11.616;2022-11-20T03:50:09;2.70;;;2.50;;
18510;SDS011;9384;48.044;11.616;2022-11-20T03:52:38;2.73;;;2.53;;
18510;SDS011;9384;48.044;11.616;2022-11-20T03:55:06;2.70;;;2.60;;
18510;SDS011;9384;48.044;11.616;2022-11-20T03:57:33;2.90;;;2.53;;
18510;SDS011;9384;48.044;11.616;2022-11-20T04:00:00;2.50;;;2.40;;
18510;SDS011;9384;48.044;11.616;2022-11-20T04:02:27;2.47;;;2.33;;
18510;SDS011;9384;48.044;11.616;2022-11-20T04:04:53;2.67;;;2.57;;
18510;SDS011;9384;48.044;11.616;2022-11-20T04:07:22;2.53;;;2.43;;
18510;SDS011;9384;48.044;11.616;2022-11-20T04:09:48;2.50;;;2.40;;
18510;SDS011;9384;48.044;11.616;2022-11-20T04:12:15;1.97;;;1.90;;
18510;SDS011;9384;48.044;11.616;2022-11-20T04:14:42;2.53;;;2.33;;
18510;SDS011;9384;48.044;11.616;2022-11-20T04:17:09;3.20;;;2.70;;
18510;SDS011;9384;48.044;11.616;2022-11-20T04:19:36;2.47;;;2.37;;
18510;SDS011;9384;48.044;11.616;2022-11-20T04:22:02;2.50;;;2.40;;
18510;SDS011;9384;48.044;11.616;2022-11-20T04:24:31;2.60;;;2.40;;
18510;SDS011;9384;48.044;11.616;2022-11-20T04:26:57;2.23;;;2.07;;
18510;SDS011;9384;48.044;11.616;2022-11-20T04:29:24;2.47;;;2.27;;
18510;SDS011;9384;48.044;11.616;2022-11-20T04:31:51;2.60;;;2.50;;
18510;SDS011;9384;48.044;11.616;2022-11-20T04:34:18;2.87;;;2.37;;
18510;SDS011;9384;48.044;11.616;2022-11-20T04:36:44;2.70;;;2.17;;
18510;SDS011;9384;48.044;11.616;2022-11-20T04:39:12;2.30;;;2.20;;
18510;SDS011;9384;48.044;11.616;2022-11-20T04:41:41;2.80;;;2.07;;
18510;SDS011;9384;48.044;11.616;2022-11-20T04:44:08;2.43;;;2.10;;
18510;SDS011;9384;48.044;11.616;2022-11-20T04:46:36;2.27;;;2.13;;
18510;SDS011;9384;48.044;11.616;2022-11-20T04:49:04;2.33;;;2.23;;
18510;SDS011;9384;48.044;11.616;2022-11-20T04:51:31;2.03;;;2.03;;
18510;SDS011;9384;48.044;11.616;2022-11-20T04:53:59;2.40;;;2.30;;
18510;SDS011;9384;48.044;11.616;2022-11-20T04:56:26;2.43;;;2.33;;
18510;SDS011;9384;48.044;11.616;2022-11-20T04:58:54;2.97;;;2.70;;
18510;SDS011;9384;48.044;11.616;2022-11-20T05:01:21;2.77;;;2.27;;
18510;SDS011;9384;48.044;11.616;2022-11-20T05:03:50;2.40;;;2.30;;
18510;SDS011;9384;48.044;11.616;2022-11-20T05:06:17;2.83;;;2.70;;
18510;SDS011;9384;48.044;11.616;2022-11-20T05:08:45;2.10;;;2.00;;
18510;SDS011;9384;48.044;11.616;2022-11-20T05:11:13;2.53;;;2.30;;
18510;SDS011;9384;48.044;11.616;2022-11-20T05:13:41;2.33;;;2.23;;
18510;SDS011;9384;48.044;11.616;2022-11-20T05:16:10;5.10;;;2.70;;
18510;SDS011;9384;48.044;11.616;2022-11-20T05:18:39;2.47;;;2.37;;
18510;SDS011;9384;48.044;11.616;2022-11-20T05:21:06;2.57;;;2.47;;
18510;SDS011;9384;48.044;11.616;2022-11-20T05:23:35;2.80;;;2.60;;
18510;SDS011;9384;48.044;11.616;2022-11-20T05:26:02;2.50;;;2.40;;
18510;SDS011;9384;48.044;11.616;2022-11-20T05:28:30;3.20;;;2.33;;
18510;SDS011;9384;48.044;11.616;2022-11-20T05:31:03;2.40;;;2.40;;
18510;SDS011;9384;48.044;11.616;2022-11-20T05:33:32;2.73;;;2.63;;
18510;SDS011;9384;48.044;11.616;2022-11-20T05:35:59;2.47;;;2.37;;
18510;SDS011;9384;48.044;11.616;2022-11-20T05:38:26;2.63;;;2.43;;
18510;SDS011;9384;48.044;11.616;2022-11-20T05:40:53;3.03;;;2.83;;
18510;SDS011;9384;48.044;11.616;2022-11-20T05:43:19;2.83;;;2.63;;
18510;SDS011;9384;48.044;11.616;2022-11-20T05:45:51;3.13;;;2.93;;
18510;SDS011;9384;48.044;11.616;2022-11-20T05:48:19;3.20;;;3.10;;
18510;SDS011;9384;48.044;11.616;2022-11-20T05:50:47;3.43;;;3.03;;
18510;SDS011;9384;48.044;11.616;2022-11-20T05:53:14;3.90;;;3.60;;
18510;SDS011;9384;48.044;11.616;2022-11-20T05:55:41;3.00;;;2.83;;
18510;SDS011;9384;48.044;11.616;2022-11-20T05:58:08;3.47;;;3.17;;
18510;SDS011;9384;48.044;11.616;2022-11-20T06:00:35;3.50;;;3.20;;
18510;SDS011;9384;48.044;11.616;2022-11-20T06:03:02;3.43;;;3.23;;
18510;SDS011;9384;48.044;11.616;2022-11-20T06:05:29;3.30;;;3.10;;
18510;SDS011;9384;48.044;11.616;2022-11-20T06:07:57;3.20;;;3.00;;
18510;SDS011;9384;48.044;11.616;2022-11-20T06:10:26;2.93;;;2.73;;
18510;SDS011;9384;48.044;11.616;2022-11-20T06:12:53;4.23;;;3.20;;
18510;SDS011;9384;48.044;11.616;2022-11-20T06:15:19;3.30;;;3.07;;
18510;SDS011;9384;48.044;11.616;2022-11-20T06:17:46;3.00;;;2.80;;
18510;SDS011;9384;48.044;11.616;2022-11-20T06:20:17;3.47;;;3.17;;
18510;SDS011;9384;48.044;11.616;2022-11-20T06:22:44;3.53;;;3.33;;
18510;SDS011;9384;48.044;11.616;2022-11-20T06:25:12;3.33;;;3.07;;
18510;SDS011;9384;48.044;11.616;2022-11-20T06:27:39;3.53;;;3.33;;
18510;SDS011;9384;48.044;11.616;2022-11-20T06:30:07;2.90;;;2.70;;
18510;SDS011;9384;48.044;11.616;2022-11-20T06:32:34;3.53;;;3.33;;
18510;SDS011;9384;48.044;11.616;2022-11-20T06:35:01;3.13;;;2.93;;
18510;SDS011;9384;48.044;11.616;2022-11-20T06:37:28;3.00;;;2.87;;
18510;SDS011;9384;48.044;11.616;2022-11-20T06:39:55;3.27;;;3.10;;
18510;SDS011;9384;48.044;11.616;2022-11-20T06:42:23;3.27;;;3.07;;
18510;SDS011;9384;48.044;11.616;2022-11-20T06:44:50;2.97;;;2.87;;
18510;SDS011;9384;48.044;11.616;2022-11-20T06:47:17;2.90;;;2.80;;
18510;SDS011;9384;48.044;11.616;2022-11-20T06:49:44;3.00;;;2.80;;
18510;SDS011;9384;48.044;11.616;2022-11-20T06:52:10;3.37;;;3.17;;
18510;SDS011;9384;48.044;11.616;2022-11-20T06:54:37;3.10;;;2.90;;
18510;SDS011;9384;48.044;11.616;2022-11-20T06:57:04;2.90;;;2.70;;
18510;SDS011;9384;48.044;11.616;2022-11-20T06:59:32;3.00;;;2.70;;
18510;SDS011;9384;48.044;11.616;2022-11-20T07:01:59;3.77;;;2.30;;
18510;SDS011;9384;48.044;11.616;2022-11-20T07:04:26;2.93;;;2.73;;
18510;SDS011;9384;48.044;11.616;2022-11-20T07:06:52;3.43;;;3.13;;
18510;SDS011;9384;48.044;11.616;2022-11-20T07:09:19;2.97;;;2.83;;
18510;SDS011;9384;48.044;11.616;2022-11-20T07:11:46;3.97;;;3.10;;
18510;SDS011;9384;48.044;11.616;2022-11-20T07:14:13;3.23;;;2.93;;
18510;SDS011;9384;48.044;11.616;2022-11-20T07:16:41;3.53;;;3.23;;
18510;SDS011;9384;48.044;11.616;2022-11-20T07:19:08;3.70;;;3.47;;
18510;SDS011;9384;48.044;11.616;2022-11-20T07:21:35;3.53;;;3.33;;
18510;SDS011;9384;48.044;11.616;2022-11-20T07:24:01;3.30;;;3.10;;
18510;SDS011;9384;48.044;11.616;2022-11-20T07:26:28;3.43;;;3.23;;
18510;SDS011;9384;48.044;11.616;2022-11-20T07:28:55;3.57;;;3.30;;
18510;SDS011;9384;48.044;11.616;2022-11-20T07:31:22;3.07;;;2.97;;
18510;SDS011;9384;48.044;11.616;2022-11-20T07:33:50;5.30;;;3.43;;
18510;SDS011;9384;48.044;11.616;2022-11-20T07:36:17;3.13;;;2.80;;
18510;SDS011;9384;48.044;11.616;2022-11-20T07:38:44;3.20;;;3.00;;
18510;SDS011;9384;48.044;11.616;2022-11-20T07:41:10;2.87;;;2.63;;
18510;SDS011;9384;48.044;11.616;2022-11-20T07:43:37;2.77;;;2.60;;
18510;SDS011;9384;48.044;11.616;2022-11-20T07:46:04;2.73;;;2.63;;
18510;SDS011;9384;48.044;11.616;2022-11-20T07:48:31;2.63;;;2.47;;
18510;SDS011;9384;48.044;11.616;2022-11-20T07:50:59;3.10;;;2.50;;
18510;SDS011;9384;48.044;11.616;2022-11-20T07:53:26;5.70;;;2.87;;
18510;SDS011;9384;48.044;11.616;2022-11-20T07:55:53;2.53;;;2.33;;
18510;SDS011;9384;48.044;11.616;2022-11-20T07:58:20;4.47;;;3.03;;
18510;SDS011;9384;48.044;11.616;2022-11-20T08:00:47;3.43;;;3.23;;
18510;SDS011;9384;48.044;11.616;2022-11-20T08:03:14;2.57;;;2.47;;
18510;SDS011;9384;48.044;11.616;2022-11-20T08:05:41;2.50;;;2.40;;
18510;SDS011;9384;48.044;11.616;2022-11-20T08:08:09;3.37;;;3.07;;
18510;SDS011;9384;48.044;11.616;2022-11-20T08:10:36;2.80;;;2.70;;
18510;SDS011;9384;48.044;11.616;2022-11-20T08:13:02;2.37;;;2.27;;
18510;SDS011;9384;48.044;11.616;2022-11-20T08:15:47;3.60;;;2.70;;
18510;SDS011;9384;48.044;11.616;2022-11-20T08:18:16;2.40;;;2.20;;
18510;SDS011;9384;48.044;11.616;2022-11-20T08:20:43;2.40;;;2.30;;
18510;SDS011;9384;48.044;11.616;2022-11-20T08:23:12;3.40;;;2.60;;
18510;SDS011;9384;48.044;11.616;2022-11-20T08:25:39;2.70;;;2.57;;
18510;SDS011;9384;48.044;11.616;2022-11-20T08:28:06;3.00;;;2.90;;
18510;SDS011;9384;48.044;11.616;2022-11-20T08:30:35;3.90;;;3.50;;
18510;SDS011;9384;48.044;11.616;2022-11-20T08:33:03;3.33;;;3.20;;
18510;SDS011;9384;48.044;11.616;2022-11-20T08:35:35;2.70;;;2.50;;
18510;SDS011;9384;48.044;11.616;2022-11-20T08:38:02;2.50;;;2.40;;
18510;SDS011;9384;48.044;11.616;2022-11-20T08:40:32;2.70;;;2.60;;
18510;SDS011;9384;48.044;11.616;2022-11-20T08:42:59;2.70;;;2.60;;
18510;SDS011;9384;48.044;11.616;2022-11-20T08:45:26;2.93;;;2.57;;
18510;SDS011;9384;48.044;11.616;2022-11-20T08:47:52;2.87;;;2.77;;
18510;SDS011;9384;48.044;11.616;2022-11-20T08:50:19;2.80;;;2.47;;
18510;SDS011;9384;48.044;11.616;2022-11-20T08:52:46;2.67;;;2.57;;
18510;SDS011;9384;48.044;11.616;2022-11-20T08:55:13;2.70;;;2.60;;
18510;SDS011;9384;48.044;11.616;2022-11-20T08:57:41;2.43;;;2.33;;
18510;SDS011;9384;48.044;11.616;2022-11-20T09:00:09;2.57;;;2.47;;
18510;SDS011;9384;48.044;11.616;2022-11-20T09:02:37;2.33;;;2.23;;
18510;SDS011;9384;48.044;11.616;2022-11-20T09:05:04;3.10;;;2.40;;
18510;SDS011;9384;48.044;11.616;2022-11-20T09:07:31;2.03;;;2.00;;
18510;SDS011;9384;48.044;11.616;2022-11-20T09:09:58;2.40;;;2.40;;
18510;SDS011;9384;48.044;11.616;2022-11-20T09:12:25;2.10;;;2.00;;
18510;SDS011;9384;48.044;11.616;2022-11-20T09:14:53;2.67;;;1.93;;
18510;SDS011;9384;48.044;11.616;2022-11-20T09:17:19;2.07;;;2.07;;
18510;SDS011;9384;48.044;11.616;2022-11-20T09:19:46;5.30;;;2.10;;
18510;SDS011;9384;48.044;11.616;2022-11-20T09:22:13;1.80;;;1.80;;
18510;SDS011;9384;48.044;11.616;2022-11-20T09:24:40;2.20;;;2.10;;
18510;SDS011;9384;48.044;11.616;2022-11-20T09:27:07;2.77;;;2.57;;
18510;SDS011;9384;48.044;11.616;2022-11-20T09:29:34;2.03;;;1.90;;
18510;SDS011;9384;48.044;11.616;2022-11-20T09:32:03;2.27;;;2.17;;
18510;SDS011;9384;48.044;11.616;2022-11-20T09:34:30;2.07;;;1.97;;
18510;SDS011;9384;48.044;11.616;2022-11-20T09:36:57;2.20;;;2.10;;
18510;SDS011;9384;48.044;11.616;2022-11-20T09:39:24;1.63;;;1.63;;
18510;SDS011;9384;48.044;11.616;2022-11-20T09:41:57;1.90;;;1.80;;
18510;SDS011;9384;48.044;11.616;2022-11-20T09:44:54;1.80;;;1.70;;
18510;SDS011;9384;48.044;11.616;2022-11-20T09:50:43;2.00;;;1.90;;
18510;SDS011;9384;48.044;11.616;2022-11-20T09:53:17;2.10;;;2.00;;
18510;SDS011;9384;48.044;11.616;2022-11-20T09:55:51;1.63;;;1.63;;
18510;SDS011;9384;48.044;11.616;2022-11-20T09:58:21;1.43;;;1.43;;
18510;SDS011;9384;48.044;11.616;2022-11-20T10:00:55;1.80;;;1.70;;
18510;SDS011;9384;48.044;11.616;2022-11-20T10:03:30;1.37;;;1.37;;
18510;SDS011;9384;48.044;11.616;2022-11-20T10:06:03;1.90;;;1.77;;
18510;SDS011;9384;48.044;11.616;2022-11-20T10:08:39;4.40;;;1.40;;
18510;SDS011;9384;48.044;11.616;2022-11-20T10:11:12;1.23;;;1.23;;
18510;SDS011;9384;48.044;11.616;2022-11-20T10:13:45;1.60;;;1.60;;
18510;SDS011;9384;48.044;11.616;2022-11-20T10:16:21;1.50;;;1.40;;
18510;SDS011;9384;48.044;11.616;2022-11-20T10:19:03;1.27;;;1.27;;
18510;SDS011;9384;48.044;11.616;2022-11-20T10:21:46;1.30;;;1.30;;
18510;SDS011;9384;48.044;11.616;2022-11-20T10:27:21;2.93;;;1.60;;
18510;SDS011;9384;48.044;11.616;2022-11-20T10:30:09;3.03;;;2.00;;
18510;SDS011;9384;48.044;11.616;2022-11-20T10:32:39;1.87;;;1.60;;
18510;SDS011;9384;48.044;11.616;2022-11-20T10:35:16;1.40;;;1.40;;
18510;SDS011;9384;48.044;11.616;2022-11-20T10:37:45;1.43;;;1.43;;
18510;SDS011;9384;48.044;11.616;2022-11-20T10:40:18;1.23;;;1.23;;
18510;SDS011;9384;48.044;11.616;2022-11-20T10:42:50;1.40;;;1.30;;
18510;SDS011;9384;48.044;11.616;2022-11-20T10:45:26;1.13;;;1.13;;
18510;SDS011;9384;48.044;11.616;2022-11-20T10:48:09;1.57;;;1.53;;
18510;SDS011;9384;48.044;11.616;2022-11-20T10:50:44;1.67;;;1.63;;
18510;SDS011;9384;48.044;11.616;2022-11-20T10:53:16;1.40;;;1.40;;
18510;SDS011;9384;48.044;11.616;2022-11-20T10:55:48;1.20;;;1.20;;
18510;SDS011;9384;48.044;11.616;2022-11-20T10:58:19;1.20;;;1.00;;
18510;SDS011;9384;48.044;11.616;2022-11-20T11:00:49;1.20;;;1.20;;
18510;SDS011;9384;48.044;11.616;2022-11-20T11:03:20;1.07;;;1.07;;
18510;SDS011;9384;48.044;11.616;2022-11-20T11:05:49;1.20;;;1.20;;
18510;SDS011;9384;48.044;11.616;2022-11-20T11:08:18;1.20;;;1.20;;
18510;SDS011;9384;48.044;11.616;2022-11-20T11:10:46;2.90;;;1.30;;
18510;SDS011;9384;48.044;11.616;2022-11-20T11:13:19;1.83;;;1.73;;
18510;SDS011;9384;48.044;11.616;2022-11-20T11:15:46;1.13;;;1.00;;
18510;SDS011;9384;48.044;11.616;2022-11-20T11:18:22;0.97;;;0.97;;
18510;SDS011;9384;48.044;11.616;2022-11-20T11:20:51;0.97;;;0.97;;
18510;SDS011;9384;48.044;11.616;2022-11-20T11:23:25;1.77;;;1.67;;
18510;SDS011;9384;48.044;11.616;2022-11-20T11:25:56;1.37;;;1.37;;
18510;SDS011;9384;48.044;11.616;2022-11-20T11:28:24;1.50;;;1.50;;
18510;SDS011;9384;48.044;11.616;2022-11-20T11:30:53;1.50;;;1.50;;
18510;SDS011;9384;48.044;11.616;2022-11-20T11:33:21;1.10;;;1.10;;
18510;SDS011;9384;48.044;11.616;2022-11-20T11:35:51;1.20;;;1.10;;
18510;SDS011;9384;48.044;11.616;2022-11-20T11:38:22;1.40;;;1.40;;
18510;SDS011;9384;48.044;11.616;2022-11-20T11:40:54;1.10;;;1.10;;
18510;SDS011;9384;48.044;11.616;2022-11-20T11:43:24;1.50;;;1.40;;
18510;SDS011;9384;48.044;11.616;2022-11-20T11:46:19;1.87;;;1.07;;
18510;SDS011;9384;48.044;11.616;2022-11-20T11:48:55;1.70;;;1.30;;
18510;SDS011;9384;48.044;11.616;2022-11-20T11:51:24;1.63;;;1.40;;
18510;SDS011;9384;48.044;11.616;2022-11-20T11:53:55;1.87;;;1.77;;
18510;SDS011;9384;48.044;11.616;2022-11-20T11:56:24;1.37;;;1.17;;
18510;SDS011;9384;48.044;11.616;2022-11-20T11:58:53;1.10;;;1.10;;
18510;SDS011;9384;48.044;11.616;2022-11-20T12:01:28;1.70;;;1.50;;
18510;SDS011;9384;48.044;11.616;2022-11-20T12:04:00;1.47;;;1.17;;
18510;SDS011;9384;48.044;11.616;2022-11-20T12:06:32;1.60;;;1.50;;
18510;SDS011;9384;48.044;11.616;2022-11-20T12:09:01;1.10;;;1.10;;
18510;SDS011;9384;48.044;11.616;2022-11-20T12:11:30;1.50;;;1.40;;
18510;SDS011;9384;48.044;11.616;2022-11-20T12:14:00;1.23;;;1.23;;
18510;SDS011;9384;48.044;11.616;2022-11-20T12:16:36;1.27;;;1.27;;
18510;SDS011;9384;48.044;11.616;2022-11-20T12:19:06;1.23;;;1.17;;
18510;SDS011;9384;48.044;11.616;2022-11-20T12:21:38;1.07;;;1.07;;
18510;SDS011;9384;48.044;11.616;2022-11-20T12:24:29;1.10;;;1.10;;
18510;SDS011;9384;48.044;11.616;2022-11-20T12:27:06;1.17;;;1.17;;
18510;SDS011;9384;48.044;11.616;2022-11-20T12:29:51;1.30;;;1.30;;
18510;SDS011;9384;48.044;11.616;2022-11-20T12:32:28;1.40;;;1.40;;
18510;SDS011;9384;48.044;11.616;2022-11-20T12:35:05;1.30;;;1.30;;
18510;SDS011;9384;48.044;11.616;2022-11-20T12:37:46;1.40;;;1.40;;
18510;SDS011;9384;48.044;11.616;2022-11-20T12:40:24;1.40;;;1.40;;
18510;SDS011;9384;48.044;11.616;2022-11-20T12:43:01;1.40;;;1.40;;
18510;SDS011;9384;48.044;11.616;2022-11-20T12:45:54;1.20;;;1.20;;
18510;SDS011;9384;48.044;11.616;2022-11-20T12:48:47;1.83;;;1.73;;
18510;SDS011;9384;48.044;11.616;2022-11-20T12:54:33;1.20;;;1.10;;
18510;SDS011;9384;48.044;11.616;2022-11-20T12:57:18;1.97;;;1.10;;
18510;SDS011;9384;48.044;11.616;2022-11-20T13:00:02;1.70;;;1.60;;
18510;SDS011;9384;48.044;11.616;2022-11-20T13:02:43;1.23;;;1.23;;
18510;SDS011;9384;48.044;11.616;2022-11-20T13:05:27;1.23;;;1.23;;
18510;SDS011;9384;48.044;11.616;2022-11-20T13:08:02;1.73;;;1.63;;
18510;SDS011;9384;48.044;11.616;2022-11-20T13:10:33;2.47;;;1.70;;
18510;SDS011;9384;48.044;11.616;2022-11-20T13:13:07;1.50;;;1.50;;
18510;SDS011;9384;48.044;11.616;2022-11-20T13:15:44;1.70;;;1.60;;
18510;SDS011;9384;48.044;11.616;2022-11-20T13:18:16;1.93;;;1.20;;
18510;SDS011;9384;48.044;11.616;2022-11-20T13:20:45;1.30;;;1.30;;
18510;SDS011;9384;48.044;11.616;2022-11-20T13:23:22;1.40;;;1.40;;
18510;SDS011;9384;48.044;11.616;2022-11-20T13:25:52;1.73;;;1.63;;
18510;SDS011;9384;48.044;11.616;2022-11-20T13:28:30;1.83;;;1.83;;
18510;SDS011;9384;48.044;11.616;2022-11-20T13:30:57;1.90;;;1.80;;
18510;SDS011;9384;48.044;11.616;2022-11-20T13:33:26;2.27;;;2.17;;
18510;SDS011;9384;48.044;11.616;2022-11-20T13:35:56;2.63;;;1.83;;
18510;SDS011;9384;48.044;11.616;2022-11-20T13:38:26;2.00;;;1.90;;
18510;SDS011;9384;48.044;11.616;2022-11-20T13:40:56;1.67;;;1.67;;
18510;SDS011;9384;48.044;11.616;2022-11-20T13:43:44;1.70;;;1.70;;
18510;SDS011;9384;48.044;11.616;2022-11-20T13:46:13;2.00;;;1.90;;
18510;SDS011;9384;48.044;11.616;2022-11-20T13:48:41;1.57;;;1.57;;
18510;SDS011;9384;48.044;11.616;2022-11-20T13:51:12;1.70;;;1.60;;
18510;SDS011;9384;48.044;11.616;2022-11-20T13:56:50;2.23;;;2.13;;
18510;SDS011;9384;48.044;11.616;2022-11-20T13:59:28;3.13;;;1.93;;
18510;SDS011;9384;48.044;11.616;2022-11-20T14:02:05;1.53;;;1.50;;
18510;SDS011;9384;48.044;11.616;2022-11-20T14:04:38;1.40;;;1.40;;
18510;SDS011;9384;48.044;11.616;2022-11-20T14:07:10;2.00;;;1.40;;
18510;SDS011;9384;48.044;11.616;2022-11-20T14:09:38;1.30;;;1.30;;
18510;SDS011;9384;48.044;11.616;2022-11-20T14:12:18;1.70;;;1.63;;
18510;SDS011;9384;48.044;11.616;2022-11-20T14:14:47;1.63;;;1.63;;
18510;SDS011;9384;48.044;11.616;2022-11-20T14:17:17;1.70;;;1.70;;
18510;SDS011;9384;48.044;11.616;2022-11-20T14:19:45;1.70;;;1.70;;
18510;SDS011;9384;48.044;11.616;2022-11-20T14:22:18;2.20;;;1.50;;
18510;SDS011;9384;48.044;11.616;2022-11-20T14:24:46;1.30;;;1.30;;
18510;SDS011;9384;48.044;11.616;2022-11-20T14:27:14;1.73;;;1.70;;
18510;SDS011;9384;48.044;11.616;2022-11-20T14:29:44;1.40;;;1.40;;
18510;SDS011;9384;48.044;11.616;2022-11-20T14:32:14;1.50;;;1.50;;
18510;SDS011;9384;48.044;11.616;2022-11-20T14:34:43;1.80;;;1.70;;
18510;SDS011;9384;48.044;11.616;2022-11-20T14:37:17;1.70;;;1.70;;
18510;SDS011;9384;48.044;11.616;2022-11-20T14:39:48;1.60;;;1.50;;
18510;SDS011;9384;48.044;11.616;2022-11-20T14:42:18;1.53;;;1.53;;
18510;SDS011;9384;48.044;11.616;2022-11-20T14:44:48;4.70;;;1.60;;
18510;SDS011;9384;48.044;11.616;2022-11-20T14:47:17;1.80;;;1.60;;
18510;SDS011;9384;48.044;11.616;2022-11-20T14:49:47;2.00;;;1.90;;
18510;SDS011;9384;48.044;11.616;2022-11-20T14:52:15;1.70;;;1.70;;
18510;SDS011;9384;48.044;11.616;2022-11-20T14:54:45;1.83;;;1.30;;
18510;SDS011;9384;48.044;11.616;2022-11-20T14:57:22;1.53;;;1.43;;
18510;SDS011;9384;48.044;11.616;2022-11-20T15:02:38;1.20;;;1.20;;
18510;SDS011;9384;48.044;11.616;2022-11-20T15:05:07;1.10;;;1.10;;
18510;SDS011;9384;48.044;11.616;2022-11-20T15:07:34;1.23;;;1.23;;
18510;SDS011;9384;48.044;11.616;2022-11-20T15:10:05;1.00;;;1.00;;
18510;SDS011;9384;48.044;11.616;2022-11-20T15:12:34;0.90;;;0.90;;
18510;SDS011;9384;48.044;11.616;2022-11-20T15:15:05;0.90;;;0.90;;
18510;SDS011;9384;48.044;11.616;2022-11-20T15:17:36;1.10;;;1.10;;